createdAt,value
2023-02-15T00:01:23.864Z,2.77
2023-02-15T00:04:30.308Z,2.70
2023-02-15T00:07:35.280Z,3.55
2023-02-15T00:10:40.592Z,4.72
2023-02-15T00:13:43.450Z,4.97
2023-02-15T00:16:36.146Z,5.78
2023-02-15T00:19:40.840Z,5.83
2023-02-15T00:22:46.562Z,5.72
2023-02-15T00:25:52.361Z,5.30
2023-02-15T00:28:57.960Z,6.10
2023-02-15T00:32:11.194Z,4.80
2023-02-15T00:35:22.554Z,4.08
2023-02-15T00:41:45.512Z,5.50
2023-02-15T00:44:52.355Z,3.95
2023-02-15T00:48:00.603Z,3.20
2023-02-15T00:51:12.928Z,3.30
2023-02-15T00:54:19.683Z,3.08
2023-02-15T00:57:24.842Z,2.77
2023-02-15T01:00:31.259Z,2.27
2023-02-15T01:03:38.042Z,1.95
2023-02-15T01:06:44.053Z,2.00
2023-02-15T01:09:50.285Z,2.30
2023-02-15T01:12:49.830Z,2.20
2023-02-15T01:15:55.580Z,1.80
2023-02-15T01:19:02.790Z,1.90
2023-02-15T01:22:09.372Z,3.00
2023-02-15T01:25:15.442Z,2.98
2023-02-15T01:28:21.625Z,2.42
2023-02-15T01:31:29.743Z,2.02
2023-02-15T01:34:36.371Z,2.10
2023-02-15T01:37:42.059Z,1.70
2023-02-15T01:40:47.537Z,1.80
2023-02-15T01:43:57.963Z,1.85
2023-02-15T01:47:06.766Z,2.17
2023-02-15T01:50:25.600Z,3.70
2023-02-15T01:53:46.095Z,4.65
2023-02-15T01:56:53.523Z,3.95
2023-02-15T02:00:01.656Z,5.28
2023-02-15T02:03:14.079Z,5.17
2023-02-15T02:06:19.827Z,5.92
2023-02-15T02:09:24.887Z,4.78
2023-02-15T02:12:31.605Z,4.33
2023-02-15T02:15:40.452Z,3.50
2023-02-15T02:19:05.654Z,3.90
2023-02-15T02:22:38.523Z,4.08
2023-02-15T02:25:51.838Z,4.78
2023-02-15T02:29:28.341Z,3.42
2023-02-15T02:33:18.649Z,4.33
2023-02-15T02:40:21.897Z,4.40
2023-02-15T02:43:50.722Z,5.10
2023-02-15T02:47:22.535Z,6.15
2023-02-15T02:50:33.916Z,5.45
2023-02-15T02:53:40.232Z,4.78
2023-02-15T02:56:52.511Z,4.40
2023-02-15T02:59:58.515Z,5.05
2023-02-15T03:03:07.168Z,6.03
2023-02-15T03:06:17.239Z,7.85
2023-02-15T03:09:50.465Z,8.48
2023-02-15T03:12:55.586Z,7.97
2023-02-15T03:16:20.159Z,7.70
2023-02-15T03:19:35.357Z,8.28
2023-02-15T03:22:48.329Z,11.43
2023-02-15T03:26:02.499Z,9.00
2023-02-15T03:29:10.715Z,8.93
2023-02-15T03:32:17.628Z,8.40
2023-02-15T03:35:24.783Z,8.38
2023-02-15T03:38:34.997Z,7.67
2023-02-15T03:41:41.961Z,7.08
2023-02-15T03:44:49.501Z,7.00
2023-02-15T03:47:57.621Z,6.70
2023-02-15T03:54:50.642Z,5.78
2023-02-15T03:58:13.542Z,6.25
2023-02-15T04:01:47.369Z,5.35
2023-02-15T04:04:58.914Z,5.00
2023-02-15T04:08:05.957Z,5.47
2023-02-15T04:11:11.768Z,4.17
2023-02-15T04:14:34.434Z,4.95
2023-02-15T04:17:40.890Z,4.45
2023-02-15T04:21:05.157Z,3.87
2023-02-15T04:24:29.506Z,3.62
2023-02-15T04:27:36.725Z,4.62
2023-02-15T04:30:44.254Z,3.77
2023-02-15T04:33:51.232Z,3.35
2023-02-15T04:36:58.143Z,4.17
2023-02-15T04:40:06.131Z,4.50
2023-02-15T04:43:13.093Z,5.67
2023-02-15T04:46:18.588Z,6.47
2023-02-15T04:49:25.248Z,6.97
2023-02-15T04:52:30.750Z,7.15
2023-02-15T04:55:36.738Z,7.28
2023-02-15T04:58:44.736Z,8.63
2023-02-15T05:01:51.380Z,10.82
2023-02-15T05:04:57.442Z,8.60
2023-02-15T05:08:03.484Z,6.65
2023-02-15T05:11:02.379Z,5.60
2023-02-15T05:14:02.547Z,6.25
2023-02-15T05:17:01.618Z,6.53
2023-02-15T05:19:54.418Z,6.47
2023-02-15T05:22:59.800Z,7.50
2023-02-15T05:26:23.102Z,6.08
2023-02-15T05:29:28.234Z,3.98
2023-02-15T05:32:34.160Z,3.15
2023-02-15T05:35:40.678Z,2.85
2023-02-15T05:38:45.909Z,3.27
2023-02-15T05:41:52.040Z,4.55
2023-02-15T05:44:58.891Z,4.15
2023-02-15T05:48:06.600Z,4.75
2023-02-15T05:51:24.505Z,5.37
2023-02-15T05:54:31.037Z,7.08
2023-02-15T05:57:36.765Z,7.90
2023-02-15T06:00:42.640Z,9.18
2023-02-15T06:03:47.497Z,8.43
2023-02-15T06:06:54.183Z,8.68
2023-02-15T06:09:59.385Z,7.53
2023-02-15T06:13:06.079Z,7.50
2023-02-15T06:16:12.772Z,13.08
2023-02-15T06:19:18.640Z,14.47
2023-02-15T06:22:25.771Z,16.82
2023-02-15T06:25:30.545Z,17.62
2023-02-15T06:28:36.325Z,16.00
2023-02-15T06:31:42.130Z,16.77
2023-02-15T06:34:48.803Z,18.87
2023-02-15T06:37:55.021Z,18.05
2023-02-15T06:41:00.313Z,11.53
2023-02-15T06:44:05.576Z,13.62
2023-02-15T06:47:11.435Z,10.13
2023-02-15T06:50:17.251Z,9.20
2023-02-15T06:53:22.708Z,7.25
2023-02-15T06:56:27.913Z,8.25
2023-02-15T06:59:33.759Z,7.10
2023-02-15T07:02:32.656Z,6.10
2023-02-15T07:05:39.807Z,5.33
2023-02-15T07:08:39.171Z,5.83
2023-02-15T07:12:03.245Z,4.40
2023-02-15T07:15:09.950Z,3.87
2023-02-15T07:18:16.513Z,3.05
2023-02-15T07:21:22.578Z,3.15
2023-02-15T07:24:27.839Z,2.75
2023-02-15T07:27:33.414Z,2.17
2023-02-15T07:30:39.576Z,1.98
2023-02-15T07:33:49.379Z,1.85
2023-02-15T07:36:55.261Z,2.10
2023-02-15T07:39:55.863Z,1.70
2023-02-15T07:43:01.900Z,2.30
2023-02-15T07:46:07.744Z,2.20
2023-02-15T07:49:13.990Z,1.62
2023-02-15T07:52:13.161Z,2.15
2023-02-15T07:55:13.469Z,2.00
2023-02-15T07:58:20.576Z,2.10
2023-02-15T08:01:26.159Z,2.10
2023-02-15T08:04:31.171Z,1.72
2023-02-15T08:07:36.354Z,2.05
2023-02-15T08:11:00.650Z,2.35
2023-02-15T08:14:19.003Z,1.55
2023-02-15T08:17:26.536Z,2.15
2023-02-15T09:29:22.154Z,2.35
2023-02-15T09:32:30.188Z,2.12
2023-02-15T09:35:36.834Z,1.82
2023-02-15T09:38:42.619Z,2.22
2023-02-15T09:42:16.780Z,2.25
2023-02-15T09:45:45.332Z,2.30
2023-02-15T09:48:56.702Z,2.33
2023-02-15T09:52:21.277Z,2.20
2023-02-15T09:55:49.957Z,3.08
2023-02-15T09:59:22.298Z,3.27
2023-02-15T10:03:08.927Z,2.75
2023-02-15T10:06:53.728Z,2.27
2023-02-15T10:10:25.796Z,1.90
2023-02-15T10:13:54.935Z,2.17
2023-02-15T10:17:17.433Z,2.70
2023-02-15T10:20:37.328Z,2.35
2023-02-15T10:23:58.700Z,2.85
2023-02-15T10:27:09.824Z,2.58
2023-02-15T10:30:32.822Z,2.35
2023-02-15T10:33:54.054Z,3.40
2023-02-15T10:37:12.282Z,3.05
2023-02-15T10:40:50.824Z,2.52
2023-02-15T10:44:24.648Z,2.50
2023-02-15T10:48:10.184Z,2.10
2023-02-15T10:51:18.465Z,1.87
2023-02-15T10:54:53.779Z,2.50
2023-02-15T10:58:13.234Z,2.67
2023-02-15T11:01:36.125Z,2.87
2023-02-15T11:04:54.599Z,2.08
2023-02-15T11:08:03.132Z,2.15
2023-02-15T11:11:15.657Z,2.35
2023-02-15T11:14:41.071Z,2.95
2023-02-15T11:17:58.474Z,2.27
2023-02-15T11:21:19.010Z,2.40
2023-02-15T11:24:34.325Z,3.12
2023-02-15T11:27:47.601Z,20.10
2023-02-15T11:31:00.000Z,3.58
2023-02-15T11:34:15.477Z,4.17
2023-02-15T11:37:27.529Z,3.15
2023-02-15T11:40:55.248Z,3.50
2023-02-15T11:44:18.093Z,2.72
2023-02-15T11:47:27.020Z,2.45
2023-02-15T11:50:36.835Z,2.55
2023-02-15T11:53:43.067Z,3.20
2023-02-15T11:56:48.467Z,3.52
2023-02-15T11:59:55.983Z,2.72
2023-02-15T12:03:08.947Z,2.12
2023-02-15T12:06:17.934Z,3.02
2023-02-15T12:09:54.278Z,2.77
2023-02-15T12:12:59.721Z,2.95
2023-02-15T12:16:11.546Z,3.25
2023-02-15T12:19:18.241Z,4.22
2023-02-15T12:22:36.820Z,2.98
2023-02-15T12:25:54.739Z,3.72
2023-02-15T12:29:00.631Z,3.00
2023-02-15T12:32:07.503Z,3.55
2023-02-15T12:35:24.480Z,3.02
2023-02-15T12:38:35.172Z,4.60
2023-02-15T12:41:42.227Z,5.05
2023-02-15T12:44:52.585Z,3.00
2023-02-15T12:47:59.624Z,2.87
2023-02-15T12:51:08.211Z,3.92
2023-02-15T12:54:15.821Z,5.53
2023-02-15T12:57:40.239Z,5.47
2023-02-15T13:00:46.711Z,6.75
2023-02-15T13:04:13.345Z,7.97
2023-02-15T13:07:19.544Z,3.45
2023-02-15T13:10:43.650Z,3.25
2023-02-15T13:14:16.760Z,4.60
2023-02-15T13:17:23.809Z,4.12
2023-02-15T13:20:29.891Z,3.92
2023-02-15T13:23:43.588Z,4.47
2023-02-15T13:26:52.283Z,4.80
2023-02-15T13:30:04.799Z,6.08
2023-02-15T13:33:22.986Z,5.78
2023-02-15T13:36:49.918Z,5.37
2023-02-15T13:40:30.882Z,4.72
2023-02-15T13:43:51.969Z,3.92
2023-02-15T13:47:14.599Z,3.98
2023-02-15T13:50:51.793Z,3.60
2023-02-15T13:54:32.672Z,3.55
2023-02-15T13:58:11.347Z,4.03
2023-02-15T14:01:35.588Z,3.72
2023-02-15T14:05:34.088Z,3.25
2023-02-15T14:09:00.235Z,3.35
2023-02-15T14:12:16.846Z,3.98
2023-02-15T14:16:15.432Z,4.33
2023-02-15T14:19:31.196Z,4.35
2023-02-15T14:22:52.898Z,4.20
2023-02-15T14:26:05.047Z,3.12
2023-02-15T14:29:20.784Z,2.75
2023-02-15T14:32:40.941Z,2.33
2023-02-15T14:35:46.145Z,2.05
2023-02-15T14:39:12.417Z,2.35
2023-02-15T14:42:22.878Z,2.20
2023-02-15T14:45:46.471Z,1.80
2023-02-15T14:49:06.795Z,1.65
2023-02-15T14:52:16.298Z,1.90
2023-02-15T14:55:21.576Z,1.72
2023-02-15T14:58:30.064Z,3.72
2023-02-15T15:01:49.194Z,3.55
2023-02-15T15:05:03.304Z,5.42
2023-02-15T15:08:13.908Z,4.80
2023-02-15T15:11:45.873Z,5.70
2023-02-15T15:14:54.944Z,6.60
2023-02-15T15:18:21.454Z,7.30
2023-02-15T15:21:26.933Z,7.67
2023-02-15T15:24:54.043Z,5.65
2023-02-15T15:28:04.773Z,5.22
2023-02-15T15:31:11.149Z,5.00
2023-02-15T15:34:49.599Z,4.65
2023-02-15T15:38:31.826Z,2.10
2023-02-15T15:41:59.084Z,3.52
2023-02-15T15:45:43.494Z,2.98
2023-02-15T15:48:53.260Z,3.90
2023-02-15T15:51:59.908Z,2.30
2023-02-15T15:55:13.705Z,2.83
2023-02-15T15:58:23.352Z,2.15
2023-02-15T16:01:29.533Z,3.00
2023-02-15T16:04:43.845Z,2.50
2023-02-15T16:07:49.461Z,2.00
2023-02-15T16:10:55.904Z,2.55
2023-02-15T16:14:02.537Z,1.87
2023-02-15T16:17:11.785Z,2.95
2023-02-15T16:28:28.316Z,6.08
2023-02-15T16:31:34.914Z,6.53
2023-02-15T16:34:41.232Z,7.03
2023-02-15T16:37:49.926Z,6.45
2023-02-15T16:41:03.339Z,3.80
2023-02-15T16:44:11.284Z,3.75
2023-02-15T16:47:17.809Z,5.35
2023-02-15T16:50:35.997Z,3.20
2023-02-15T16:53:36.144Z,3.20
2023-02-15T16:56:47.569Z,4.58
2023-02-15T16:59:59.061Z,4.40
2023-02-15T17:03:21.367Z,2.75
2023-02-15T17:06:40.940Z,3.05
2023-02-15T17:09:48.513Z,4.40
2023-02-15T17:13:08.062Z,3.08
2023-02-15T17:16:21.940Z,3.62
2023-02-15T17:19:33.968Z,2.85
2023-02-15T17:22:42.256Z,2.80
2023-02-15T17:25:56.698Z,2.90
2023-02-15T17:29:10.855Z,3.15
2023-02-15T17:32:17.049Z,3.02
2023-02-15T17:35:35.510Z,2.62
2023-02-15T17:38:34.672Z,3.00
2023-02-15T17:41:45.029Z,3.35
2023-02-15T17:44:50.804Z,5.30
2023-02-15T17:47:56.208Z,4.37
2023-02-15T17:51:02.265Z,3.67
2023-02-15T17:54:25.677Z,3.77
2023-02-15T17:57:31.447Z,3.67
2023-02-15T18:00:55.280Z,4.17
2023-02-15T18:04:23.873Z,3.50
2023-02-15T18:07:47.685Z,3.50
2023-02-15T18:11:12.369Z,4.03
2023-02-15T18:14:22.558Z,3.40
2023-02-15T18:17:30.257Z,3.15
2023-02-15T18:20:52.011Z,7.70
2023-02-15T18:23:58.062Z,3.67
2023-02-15T18:27:04.375Z,3.77
2023-02-15T18:30:10.432Z,2.70
2023-02-15T18:33:19.184Z,3.70
2023-02-15T18:36:34.347Z,5.30
2023-02-15T18:39:56.610Z,5.55
2023-02-15T18:43:04.438Z,5.90
2023-02-15T18:46:10.942Z,5.12
2023-02-15T18:49:16.714Z,3.92
2023-02-15T18:52:25.042Z,3.55
2023-02-15T18:55:42.375Z,4.20
2023-02-15T18:58:49.654Z,5.33
2023-02-15T19:01:55.749Z,4.15
2023-02-15T19:05:02.376Z,3.80
2023-02-15T19:08:08.316Z,4.72
2023-02-15T19:11:15.014Z,5.37
2023-02-15T19:14:17.146Z,6.83
2023-02-15T19:17:10.042Z,7.35
2023-02-15T19:20:15.163Z,6.70
2023-02-15T19:23:25.593Z,9.88
2023-02-15T19:29:42.561Z,9.50
2023-02-15T19:32:49.356Z,7.67
2023-02-15T19:35:55.056Z,3.92
2023-02-15T19:39:03.452Z,4.12
2023-02-15T19:42:09.252Z,4.25
2023-02-15T19:45:15.571Z,4.40
2023-02-15T19:48:21.195Z,4.67
2023-02-15T19:51:29.654Z,5.15
2023-02-15T19:54:46.205Z,6.12
2023-02-15T19:57:51.827Z,6.62
2023-02-15T20:00:59.480Z,6.65
2023-02-15T20:04:07.504Z,5.80
2023-02-15T20:07:14.339Z,6.03
2023-02-15T20:10:21.875Z,5.87
2023-02-15T20:13:32.634Z,5.55
2023-02-15T20:16:39.293Z,5.60
2023-02-15T20:19:47.985Z,5.30
2023-02-15T20:22:53.493Z,4.58
2023-02-15T20:25:59.888Z,4.00
2023-02-15T20:29:05.939Z,3.92
2023-02-15T20:32:12.461Z,3.60
2023-02-15T20:35:18.017Z,3.45
2023-02-15T20:38:35.056Z,3.95
2023-02-15T20:41:45.808Z,3.58
2023-02-15T20:44:51.650Z,4.10
2023-02-15T20:47:58.313Z,4.87
2023-02-15T20:51:05.904Z,4.62
2023-02-15T20:54:13.699Z,3.98
2023-02-15T20:57:19.382Z,4.30
2023-02-15T21:00:37.307Z,3.90
2023-02-15T21:03:43.507Z,3.92
2023-02-15T21:06:49.415Z,3.95
2023-02-15T21:09:55.965Z,4.42
2023-02-15T21:12:55.800Z,4.20
2023-02-15T21:15:52.083Z,3.98
2023-02-15T21:18:58.533Z,5.08
2023-02-15T21:22:07.433Z,5.08
2023-02-15T21:25:14.062Z,4.83
2023-02-15T21:28:20.557Z,4.30
2023-02-15T21:31:38.463Z,4.37
2023-02-15T21:34:45.147Z,3.42
2023-02-15T21:37:50.764Z,3.87
2023-02-15T21:40:55.832Z,3.95
2023-02-15T21:44:20.918Z,5.62
2023-02-15T21:47:56.453Z,4.58
2023-02-15T21:51:21.281Z,4.12
2023-02-15T21:54:29.745Z,4.90
2023-02-15T21:57:35.268Z,4.40
2023-02-15T22:00:41.596Z,5.25
2023-02-15T22:03:51.956Z,5.05
2023-02-15T22:06:57.370Z,6.62
2023-02-15T22:10:03.493Z,6.33
2023-02-15T22:13:10.146Z,8.03
2023-02-15T22:16:15.969Z,6.53
2023-02-15T22:19:23.963Z,7.00
2023-02-15T22:22:29.947Z,7.80
2023-02-15T22:25:37.685Z,8.53
2023-02-15T22:28:52.385Z,7.60
2023-02-15T22:31:57.690Z,6.60
2023-02-15T22:35:06.101Z,6.28
2023-02-15T22:38:12.455Z,6.00
2023-02-15T22:41:18.390Z,6.17
2023-02-15T22:44:27.528Z,6.87
2023-02-15T22:47:39.002Z,7.97
2023-02-15T22:50:47.814Z,6.65
2023-02-15T22:53:55.679Z,6.60
2023-02-15T22:57:07.750Z,7.47
2023-02-15T23:00:12.976Z,6.10
2023-02-15T23:03:25.587Z,6.92
2023-02-15T23:06:24.389Z,6.45
2023-02-15T23:09:29.794Z,5.72
2023-02-15T23:12:41.154Z,5.33
2023-02-15T23:15:48.053Z,6.03
2023-02-15T23:18:56.151Z,5.20
2023-02-15T23:22:01.790Z,5.33
2023-02-15T23:25:07.461Z,4.62
2023-02-15T23:28:12.635Z,4.92
2023-02-15T23:31:21.776Z,4.30
2023-02-15T23:34:43.261Z,3.58
2023-02-15T23:37:43.040Z,7.90
2023-02-15T23:41:06.601Z,17.82
2023-02-15T23:44:10.685Z,5.15
2023-02-15T23:47:17.398Z,3.60
2023-02-15T23:50:43.078Z,2.52
2023-02-15T23:53:48.560Z,3.15
2023-02-15T23:56:54.335Z,5.47
